createdAt,value
2022-10-03T00:00:23.290Z,9.32
2022-10-03T00:03:09.562Z,7.97
2022-10-03T00:06:15.353Z,9.97
2022-10-03T00:09:01.850Z,9.97
2022-10-03T00:11:53.125Z,9.98
2022-10-03T00:14:35.416Z,8.47
2022-10-03T00:17:20.236Z,9.95
2022-10-03T00:19:56.620Z,9.99
2022-10-03T00:22:47.045Z,9.99
2022-10-03T00:26:27.973Z,10.01
2022-10-03T00:29:10.044Z,9.98
2022-10-03T00:31:56.333Z,9.05
2022-10-03T00:34:35.287Z,9.96
2022-10-03T00:37:21.051Z,9.95
2022-10-03T00:40:06.886Z,9.93
2022-10-03T00:42:56.558Z,9.82
2022-10-03T00:45:59.639Z,9.80
2022-10-03T00:49:15.339Z,9.57
2022-10-03T00:52:10.411Z,9.90
2022-10-03T00:54:58.929Z,9.89
2022-10-03T00:57:51.135Z,7.82
2022-10-03T01:00:27.096Z,9.82
2022-10-03T01:03:09.606Z,9.91
2022-10-03T01:05:48.383Z,9.92
2022-10-03T01:08:57.390Z,9.49
2022-10-03T01:11:36.377Z,9.84
2022-10-03T01:14:16.007Z,9.85
2022-10-03T01:16:45.918Z,9.86
2022-10-03T01:19:36.650Z,9.79
2022-10-03T01:22:41.443Z,9.79
2022-10-03T01:25:20.219Z,9.78
2022-10-03T01:28:05.779Z,9.87
2022-10-03T01:30:49.063Z,8.48
2022-10-03T01:33:24.328Z,9.85
2022-10-03T01:35:56.906Z,6.81
2022-10-03T01:38:54.031Z,9.85
2022-10-03T01:41:26.630Z,9.89
2022-10-03T01:44:02.394Z,9.88
2022-10-03T01:46:57.197Z,9.76
2022-10-03T01:49:32.001Z,9.86
2022-10-03T01:52:15.448Z,9.81
2022-10-03T01:54:46.763Z,7.77
2022-10-03T01:57:26.343Z,8.19
2022-10-03T01:59:59.088Z,9.83
2022-10-03T02:02:34.225Z,9.78
2022-10-03T02:05:35.968Z,8.36
2022-10-03T02:08:22.816Z,9.77
2022-10-03T02:11:08.821Z,7.90
2022-10-03T02:13:53.328Z,8.93
2022-10-03T02:16:45.166Z,9.80
2022-10-03T02:19:30.210Z,7.31
2022-10-03T02:22:00.889Z,8.69
2022-10-03T02:24:27.809Z,9.84
2022-10-03T02:27:28.456Z,9.74
2022-10-03T02:30:16.689Z,9.87
2022-10-03T02:33:08.299Z,9.74
2022-10-03T02:35:50.201Z,9.79
2022-10-03T02:38:44.894Z,8.89
2022-10-03T02:41:41.079Z,8.59
2022-10-03T02:44:50.441Z,8.36
2022-10-03T02:47:35.929Z,9.83
2022-10-03T02:50:40.413Z,9.85
2022-10-03T02:53:28.103Z,9.84
2022-10-03T02:56:36.478Z,9.73
2022-10-03T02:59:34.074Z,9.62
2022-10-03T03:02:29.662Z,9.77
2022-10-03T03:05:34.947Z,8.96
2022-10-03T03:08:12.583Z,9.68
2022-10-03T03:11:00.867Z,9.84
2022-10-03T03:13:59.472Z,9.76
2022-10-03T03:16:42.709Z,9.78
2022-10-03T03:19:29.246Z,8.77
2022-10-03T03:22:11.376Z,9.72
2022-10-03T03:25:02.810Z,9.78
2022-10-03T03:27:41.620Z,9.84
2022-10-03T03:30:13.424Z,9.85
2022-10-03T03:33:05.919Z,9.78
2022-10-03T03:35:52.126Z,9.82
2022-10-03T03:38:36.389Z,9.54
2022-10-03T03:41:32.027Z,9.10
2022-10-03T03:44:28.095Z,9.80
2022-10-03T03:47:14.235Z,8.56
2022-10-03T03:50:06.971Z,7.98
2022-10-03T03:52:42.966Z,9.85
2022-10-03T03:55:35.981Z,9.85
2022-10-03T03:58:09.733Z,9.76
2022-10-03T04:00:46.501Z,9.67
2022-10-03T04:03:39.677Z,8.94
2022-10-03T04:06:06.670Z,9.79
2022-10-03T04:09:01.585Z,9.74
2022-10-03T04:11:54.685Z,9.38
2022-10-03T04:14:57.699Z,9.70
2022-10-03T04:18:27.988Z,9.33
2022-10-03T04:21:07.403Z,9.71
2022-10-03T04:24:09.352Z,9.67
2022-10-03T04:26:59.937Z,9.65
2022-10-03T04:30:08.237Z,9.58
2022-10-03T04:32:57.658Z,9.44
2022-10-03T04:35:48.951Z,9.52
2022-10-03T04:38:21.806Z,9.58
2022-10-03T04:40:48.721Z,9.55
2022-10-03T04:43:44.137Z,9.55
2022-10-03T04:46:27.898Z,7.89
2022-10-03T04:49:16.421Z,9.63
2022-10-03T04:52:03.971Z,8.76
2022-10-03T04:54:57.554Z,9.66
2022-10-03T04:57:30.810Z,7.62
2022-10-03T05:00:13.081Z,9.66
2022-10-03T05:02:46.719Z,9.75
2022-10-03T05:05:22.243Z,8.35
2022-10-03T05:08:29.467Z,9.79
2022-10-03T05:11:08.515Z,9.74
2022-10-03T05:13:50.807Z,9.72
2022-10-03T05:16:31.205Z,7.76
2022-10-03T05:19:37.242Z,9.57
2022-10-03T05:22:16.985Z,9.62
2022-10-03T05:24:56.364Z,9.67
2022-10-03T05:27:34.564Z,8.35
2022-10-03T05:30:14.598Z,9.67
2022-10-03T05:33:07.699Z,9.74
2022-10-03T05:35:44.538Z,9.64
2022-10-03T05:38:47.338Z,9.60
2022-10-03T05:41:17.192Z,9.69
2022-10-03T05:44:15.609Z,8.68
2022-10-03T05:46:48.543Z,9.74
2022-10-03T05:49:42.410Z,9.75
2022-10-03T05:52:22.504Z,9.82
2022-10-03T05:55:22.311Z,9.30
2022-10-03T05:57:58.675Z,8.17
2022-10-03T06:00:30.915Z,9.17
2022-10-03T06:03:32.150Z,9.92
2022-10-03T06:06:34.682Z,10.02
2022-10-03T06:09:20.089Z,9.95
2022-10-03T06:11:55.820Z,9.39
2022-10-03T06:14:35.540Z,9.96
2022-10-03T06:17:20.775Z,10.07
2022-10-03T06:20:06.328Z,10.01
2022-10-03T06:22:40.312Z,8.73
2022-10-03T06:25:16.259Z,10.22
2022-10-03T06:28:02.852Z,10.25
2022-10-03T06:30:39.116Z,10.19
2022-10-03T06:33:50.969Z,10.26
2022-10-03T06:36:45.871Z,10.43
2022-10-03T06:39:31.200Z,10.42
2022-10-03T06:42:35.358Z,10.34
2022-10-03T06:45:05.430Z,10.37
2022-10-03T06:47:47.982Z,10.44
2022-10-03T06:50:45.917Z,10.46
2022-10-03T06:53:44.307Z,10.56
2022-10-03T06:56:32.840Z,10.42
2022-10-03T06:59:18.096Z,10.46
2022-10-03T07:01:54.626Z,10.57
2022-10-03T07:04:55.426Z,10.69
2022-10-03T07:07:46.220Z,10.51
2022-10-03T07:10:42.179Z,10.47
2022-10-03T07:13:42.785Z,10.41
2022-10-03T07:16:47.486Z,10.38
2022-10-03T07:19:42.971Z,9.36
2022-10-03T07:22:37.489Z,10.31
2022-10-03T07:25:33.663Z,10.30
2022-10-03T07:28:31.623Z,10.27
2022-10-03T07:31:22.253Z,9.40
2022-10-03T07:34:23.167Z,10.27
2022-10-03T07:37:41.628Z,10.35
2022-10-03T07:40:59.110Z,8.57
2022-10-03T07:43:52.119Z,7.59
2022-10-03T07:46:54.242Z,10.31
2022-10-03T07:49:45.757Z,10.40
2022-10-03T07:52:35.898Z,10.46
2022-10-03T07:55:27.313Z,10.45
2022-10-03T07:58:26.840Z,9.81
2022-10-03T08:01:17.900Z,10.53
2022-10-03T08:04:03.582Z,10.60
2022-10-03T08:06:43.783Z,10.33
2022-10-03T08:09:41.546Z,10.92
2022-10-03T08:12:31.945Z,11.23
2022-10-03T08:15:22.767Z,11.19
2022-10-03T08:18:28.778Z,11.29
2022-10-03T08:20:59.336Z,8.90
2022-10-03T08:23:44.858Z,11.33
2022-10-03T08:26:39.929Z,10.87
2022-10-03T08:30:03.370Z,11.20
2022-10-03T08:32:49.045Z,10.97
2022-10-03T08:35:31.034Z,11.21
2022-10-03T08:38:48.747Z,11.14
2022-10-03T08:41:43.053Z,11.29
2022-10-03T08:44:29.593Z,11.16
2022-10-03T08:47:39.554Z,11.18
2022-10-03T08:50:31.470Z,11.19
2022-10-03T08:53:24.794Z,9.28
2022-10-03T08:56:16.422Z,11.30
2022-10-03T08:59:07.769Z,10.84
2022-10-03T09:02:12.586Z,11.19
2022-10-03T09:04:51.739Z,11.24
2022-10-03T09:07:51.315Z,10.83
2022-10-03T09:10:44.686Z,11.30
2022-10-03T09:13:20.717Z,10.63
2022-10-03T09:16:06.052Z,11.45
2022-10-03T09:18:59.543Z,9.78
2022-10-03T09:21:37.456Z,11.34
2022-10-03T09:24:29.309Z,11.39
2022-10-03T09:26:59.159Z,11.36
2022-10-03T09:29:57.032Z,11.36
2022-10-03T09:32:44.685Z,10.88
2022-10-03T09:35:36.516Z,11.47
2022-10-03T09:38:24.381Z,10.71
2022-10-03T09:41:16.270Z,11.39
2022-10-03T09:43:43.174Z,11.42
2022-10-03T09:46:46.212Z,11.56
2022-10-03T09:49:46.322Z,9.82
2022-10-03T09:52:36.441Z,10.19
2022-10-03T09:55:13.062Z,11.07
2022-10-03T09:57:49.860Z,10.96
2022-10-03T10:00:17.048Z,11.02
2022-10-03T10:03:02.504Z,10.99
2022-10-03T10:06:31.641Z,10.35
2022-10-03T10:09:19.961Z,11.08
2022-10-03T10:12:10.234Z,11.07
2022-10-03T10:14:37.032Z,11.11
2022-10-03T10:17:31.767Z,11.08
2022-10-03T10:20:01.486Z,11.06
2022-10-03T10:23:03.603Z,11.08
2022-10-03T10:25:55.334Z,11.22
2022-10-03T10:28:47.176Z,11.17
2022-10-03T10:31:32.743Z,11.13
2022-10-03T10:34:16.448Z,10.75
2022-10-03T10:37:13.915Z,10.80
2022-10-03T10:40:21.039Z,10.45
2022-10-03T10:43:32.222Z,9.65
2022-10-03T10:46:25.647Z,10.34
2022-10-03T10:49:30.305Z,11.40
2022-10-03T10:52:39.358Z,10.45
2022-10-03T10:55:43.983Z,11.39
2022-10-03T10:58:45.644Z,11.48
2022-10-03T11:01:30.562Z,11.45
2022-10-03T11:04:35.314Z,11.72
2022-10-03T11:07:29.096Z,10.95
2022-10-03T11:10:01.970Z,11.57
2022-10-03T11:12:47.094Z,11.42
2022-10-03T11:15:23.254Z,11.41
2022-10-03T11:18:08.617Z,11.51
2022-10-03T11:20:57.565Z,11.60
2022-10-03T11:23:46.648Z,9.77
2022-10-03T11:26:40.927Z,11.64
2022-10-03T11:29:41.356Z,11.62
2022-10-03T11:33:02.251Z,11.85
2022-10-03T11:36:01.684Z,11.81
2022-10-03T11:38:34.917Z,11.97
2022-10-03T11:41:20.683Z,11.91
2022-10-03T11:43:59.552Z,10.12
2022-10-03T11:47:02.790Z,12.09
2022-10-03T11:49:43.542Z,11.75
2022-10-03T11:52:32.478Z,12.42
2022-10-03T11:55:24.199Z,12.42
2022-10-03T11:58:34.445Z,10.65
2022-10-03T12:01:04.178Z,12.16
2022-10-03T12:03:43.755Z,11.52
2022-10-03T12:06:55.866Z,11.43
2022-10-03T12:09:25.615Z,12.79
2022-10-03T12:12:01.664Z,12.41
2022-10-03T12:14:29.445Z,12.55
2022-10-03T12:17:00.417Z,12.45
2022-10-03T12:19:49.675Z,12.48
2022-10-03T12:22:33.671Z,12.48
2022-10-03T12:25:31.390Z,12.83
2022-10-03T12:28:24.420Z,12.83
2022-10-03T12:31:07.047Z,12.74
2022-10-03T12:34:00.247Z,11.60
2022-10-03T12:36:54.380Z,11.56
2022-10-03T12:40:05.084Z,12.46
2022-10-03T12:43:01.791Z,12.60
2022-10-03T12:45:47.835Z,12.69
2022-10-03T12:48:27.002Z,12.57
2022-10-03T12:51:36.571Z,12.57
2022-10-03T12:54:16.162Z,10.44
2022-10-03T12:57:01.027Z,12.90
2022-10-03T12:59:42.575Z,13.07
2022-10-03T13:02:35.750Z,13.21
2022-10-03T13:05:22.239Z,13.60
2022-10-03T13:08:00.843Z,13.72
2022-10-03T13:10:45.986Z,13.43
2022-10-03T13:13:19.601Z,13.64
2022-10-03T13:16:06.358Z,13.54
2022-10-03T13:18:54.058Z,13.23
2022-10-03T13:21:45.609Z,13.11
2022-10-03T13:24:20.874Z,12.96
2022-10-03T13:26:53.474Z,13.05
2022-10-03T13:29:30.490Z,13.36
2022-10-03T13:32:01.826Z,13.50
2022-10-03T13:34:34.566Z,13.10
2022-10-03T13:37:10.349Z,13.11
2022-10-03T13:40:04.939Z,12.28
2022-10-03T13:42:41.264Z,13.51
2022-10-03T13:45:25.858Z,12.54
2022-10-03T13:48:00.373Z,13.41
2022-10-03T13:50:31.331Z,11.99
2022-10-03T13:53:04.128Z,13.25
2022-10-03T13:55:55.065Z,13.28
2022-10-03T13:58:33.557Z,13.34
2022-10-03T14:01:38.008Z,13.36
2022-10-03T14:04:08.060Z,13.27
2022-10-03T14:06:44.211Z,13.12
2022-10-03T14:09:38.640Z,13.17
2022-10-03T14:12:50.740Z,13.09
2022-10-03T14:15:41.605Z,13.19
2022-10-03T14:18:08.548Z,13.03
2022-10-03T14:21:03.773Z,11.15
2022-10-03T14:23:35.590Z,13.11
2022-10-03T14:26:13.362Z,10.78
2022-10-03T14:29:04.740Z,10.93
2022-10-03T14:31:57.024Z,12.95
2022-10-03T14:34:55.770Z,12.99
2022-10-03T14:37:33.354Z,13.03
2022-10-03T14:40:16.149Z,11.67
2022-10-03T14:43:11.012Z,11.69
2022-10-03T14:45:44.453Z,12.74
2022-10-03T14:48:33.728Z,11.54
2022-10-03T14:51:21.421Z,11.46
2022-10-03T14:54:23.332Z,12.71
2022-10-03T14:56:52.707Z,12.59
2022-10-03T14:59:23.968Z,11.80
2022-10-03T15:01:55.155Z,11.63
2022-10-03T15:04:29.211Z,12.56
2022-10-03T15:07:00.673Z,12.15
2022-10-03T15:09:40.577Z,12.48
2022-10-03T15:12:15.858Z,12.40
2022-10-03T15:14:49.915Z,11.40
2022-10-03T15:17:27.703Z,11.94
2022-10-03T15:19:58.311Z,12.28
2022-10-03T15:22:40.478Z,12.28
2022-10-03T15:25:18.478Z,11.85
2022-10-03T15:27:50.255Z,11.82
2022-10-03T15:30:31.932Z,10.83
2022-10-03T15:33:11.230Z,10.95
2022-10-03T15:35:42.370Z,10.22
2022-10-03T15:38:17.142Z,11.93
2022-10-03T15:40:52.668Z,11.91
2022-10-03T15:43:27.759Z,11.85
2022-10-03T15:45:58.416Z,11.81
2022-10-03T15:48:28.414Z,11.49
2022-10-03T15:50:59.291Z,10.70
2022-10-03T15:53:36.750Z,11.61
2022-10-03T15:56:19.390Z,11.61
2022-10-03T15:58:55.728Z,11.15
2022-10-03T16:01:46.835Z,11.46
2022-10-03T16:04:22.465Z,11.37
2022-10-03T16:07:17.463Z,10.38
2022-10-03T16:09:53.548Z,10.57
2022-10-03T16:12:36.307Z,11.34
2022-10-03T16:15:24.177Z,11.24
2022-10-03T16:17:56.898Z,11.25
2022-10-03T16:20:38.203Z,11.18
2022-10-03T16:23:24.828Z,10.42
2022-10-03T16:26:00.769Z,11.16
2022-10-03T16:29:10.850Z,11.03
2022-10-03T16:31:50.889Z,9.65
2022-10-03T16:34:20.643Z,10.88
2022-10-03T16:36:50.274Z,9.73
2022-10-03T16:39:39.952Z,10.19
2022-10-03T16:42:20.507Z,10.36
2022-10-03T16:44:55.686Z,10.63
2022-10-03T16:47:34.877Z,10.66
2022-10-03T16:50:21.174Z,9.79
2022-10-03T16:52:53.118Z,10.32
2022-10-03T16:55:28.994Z,10.60
2022-10-03T16:58:15.014Z,8.46
2022-10-03T17:01:26.009Z,9.29
2022-10-03T17:03:57.180Z,9.66
2022-10-03T17:06:30.345Z,9.22
2022-10-03T17:09:02.607Z,9.60
2022-10-03T17:11:35.289Z,9.54
2022-10-03T17:14:07.183Z,10.12
2022-10-03T17:16:51.283Z,9.10
2022-10-03T17:19:42.914Z,10.08
2022-10-03T17:22:20.219Z,8.28
2022-10-03T17:25:02.834Z,8.22
2022-10-03T17:27:32.769Z,9.98
2022-10-03T17:30:05.139Z,6.18
2022-10-03T17:32:45.292Z,7.89
2022-10-03T17:35:38.264Z,9.24
2022-10-03T17:38:44.387Z,9.91
2022-10-03T17:41:19.881Z,9.84
2022-10-03T17:44:12.481Z,9.84
2022-10-03T17:46:51.052Z,9.22
2022-10-03T17:49:31.897Z,8.79
2022-10-03T17:51:59.638Z,8.67
2022-10-03T17:54:36.138Z,7.84
2022-10-03T17:57:23.797Z,9.73
2022-10-03T18:00:00.611Z,9.74
2022-10-03T18:03:03.393Z,9.66
2022-10-03T18:05:38.381Z,8.42
2022-10-03T18:08:11.844Z,5.78
2022-10-03T18:10:46.806Z,9.68
2022-10-03T18:13:31.650Z,9.36
2022-10-03T18:16:34.342Z,9.63
2022-10-03T18:19:01.450Z,9.64
2022-10-03T18:21:43.332Z,9.68
2022-10-03T18:24:25.487Z,9.60
2022-10-03T18:27:11.930Z,9.55
2022-10-03T18:29:38.739Z,9.64
2022-10-03T18:32:19.057Z,9.61
2022-10-03T18:35:03.215Z,5.88
2022-10-03T18:37:30.102Z,9.62
2022-10-03T18:39:59.461Z,8.47
2022-10-03T18:42:30.083Z,9.55
2022-10-03T18:44:59.037Z,9.54
2022-10-03T18:47:44.905Z,9.31
2022-10-03T18:51:05.968Z,9.54
2022-10-03T18:53:41.082Z,8.51
2022-10-03T18:56:13.798Z,8.24
2022-10-03T18:59:10.212Z,8.75
2022-10-03T19:01:53.279Z,9.54
2022-10-03T19:04:29.925Z,9.15
2022-10-03T19:06:58.765Z,8.14
2022-10-03T19:10:04.336Z,9.44
2022-10-03T19:12:39.271Z,8.04
2022-10-03T19:15:22.521Z,8.61
2022-10-03T19:18:08.238Z,9.32
2022-10-03T19:20:43.914Z,8.62
2022-10-03T19:23:39.775Z,6.92
2022-10-03T19:26:13.051Z,6.45
2022-10-03T19:28:46.996Z,9.10
2022-10-03T19:31:22.702Z,9.09
2022-10-03T19:33:53.345Z,9.09
2022-10-03T19:36:24.996Z,8.66
2022-10-03T19:38:53.460Z,9.05
2022-10-03T19:41:28.311Z,7.45
2022-10-03T19:43:57.982Z,8.09
2022-10-03T19:46:46.658Z,9.00
2022-10-03T19:49:44.695Z,8.94
2022-10-03T19:52:34.446Z,8.24
2022-10-03T19:55:27.090Z,8.99
2022-10-03T19:58:01.890Z,9.02
2022-10-03T20:00:33.123Z,8.62
2022-10-03T20:03:32.467Z,8.93
2022-10-03T20:06:26.938Z,8.93
2022-10-03T20:08:59.887Z,8.84
2022-10-03T20:11:44.626Z,7.88
2022-10-03T20:14:27.399Z,8.78
2022-10-03T20:17:03.477Z,7.56
2022-10-03T20:19:57.619Z,8.75
2022-10-03T20:22:27.563Z,8.80
2022-10-03T20:24:54.997Z,7.93
2022-10-03T20:27:36.015Z,7.61
2022-10-03T20:30:05.986Z,8.83
2022-10-03T20:32:37.674Z,8.40
2022-10-03T20:35:05.849Z,8.83
2022-10-03T20:37:47.552Z,7.38
2022-10-03T20:40:44.443Z,8.79
2022-10-03T20:43:59.157Z,8.79
2022-10-03T20:46:46.217Z,8.36
2022-10-03T20:49:18.899Z,8.83
2022-10-03T20:51:55.075Z,8.82
2022-10-03T20:54:25.038Z,8.24
2022-10-03T20:57:03.933Z,8.98
2022-10-03T20:59:38.114Z,6.58
2022-10-03T21:02:15.567Z,9.08
2022-10-03T21:04:57.674Z,8.43
2022-10-03T21:07:37.732Z,8.13
2022-10-03T21:10:16.664Z,9.29
2022-10-03T21:12:58.018Z,9.34
2022-10-03T21:15:54.006Z,9.38
2022-10-03T21:18:37.118Z,9.43
2022-10-03T21:21:23.891Z,9.48
2022-10-03T21:23:57.530Z,8.48
2022-10-03T21:26:29.741Z,7.78
2022-10-03T21:29:30.870Z,9.72
2022-10-03T21:32:28.842Z,9.82
2022-10-03T21:34:58.634Z,9.76
2022-10-03T21:37:37.678Z,8.40
2022-10-03T21:40:16.698Z,9.87
2022-10-03T21:43:11.641Z,9.94
2022-10-03T21:46:10.597Z,9.93
2022-10-03T21:49:08.489Z,9.91
2022-10-03T21:52:00.717Z,9.63
2022-10-03T21:54:44.835Z,9.39
2022-10-03T21:57:31.453Z,10.01
2022-10-03T22:00:28.726Z,8.95
2022-10-03T22:03:11.576Z,9.09
2022-10-03T22:06:03.325Z,10.09
2022-10-03T22:08:33.288Z,9.35
2022-10-03T22:11:06.009Z,9.24
2022-10-03T22:13:44.856Z,10.08
2022-10-03T22:16:44.338Z,8.95
2022-10-03T22:19:29.631Z,10.03
2022-10-03T22:21:59.372Z,10.00
2022-10-03T22:24:38.618Z,7.11
2022-10-03T22:27:33.122Z,9.90
2022-10-03T22:30:07.762Z,9.89
2022-10-03T22:32:47.690Z,9.59
2022-10-03T22:35:23.850Z,9.82
2022-10-03T22:37:51.393Z,9.15
2022-10-03T22:40:18.852Z,9.90
2022-10-03T22:42:53.011Z,9.58
2022-10-03T22:45:21.588Z,9.86
2022-10-03T22:47:53.542Z,9.98
2022-10-03T22:50:25.036Z,9.13
2022-10-03T22:52:52.802Z,9.88
2022-10-03T22:55:24.774Z,9.75
2022-10-03T22:57:54.243Z,9.79
2022-10-03T23:00:29.028Z,9.75
2022-10-03T23:03:11.248Z,8.87
2022-10-03T23:05:56.756Z,9.74
2022-10-03T23:09:04.157Z,8.92
2022-10-03T23:11:34.657Z,7.92
2022-10-03T23:14:13.445Z,8.79
2022-10-03T23:16:59.020Z,9.58
2022-10-03T23:20:20.298Z,9.50
2022-10-03T23:22:52.770Z,9.35
2022-10-03T23:25:26.295Z,9.57
2022-10-03T23:27:59.452Z,9.61
2022-10-03T23:30:45.728Z,9.66
2022-10-03T23:33:38.806Z,9.73
2022-10-03T23:36:21.047Z,9.77
2022-10-03T23:38:53.901Z,9.62
2022-10-03T23:41:42.697Z,9.76
2022-10-03T23:44:34.920Z,9.13
2022-10-03T23:47:05.032Z,8.93
2022-10-03T23:49:33.529Z,7.82
2022-10-03T23:52:00.618Z,8.14
2022-10-03T23:54:28.923Z,9.94
2022-10-03T23:57:06.515Z,7.56
2022-10-03T23:59:37.491Z,7.53
